createdAt,value
2017-03-11T00:08:23.930Z,5.4
2017-03-11T00:18:38.725Z,4.8
2017-03-11T00:28:52.404Z,4.4
2017-03-11T00:39:05.759Z,4.6
2017-03-11T00:49:24.007Z,4.6
2017-03-11T00:59:33.846Z,4.9
2017-03-11T01:09:46.955Z,5.3
2017-03-11T01:20:00.796Z,5
2017-03-11T01:30:15.640Z,5.3
2017-03-11T01:40:29.362Z,5.6
2017-03-11T01:50:43.757Z,5.6
2017-03-11T02:00:58.780Z,5.7
2017-03-11T02:11:12.687Z,5.6
2017-03-11T02:21:27.299Z,5.6
2017-03-11T02:31:41.496Z,5.4
2017-03-11T02:41:56.102Z,5.4
2017-03-11T02:52:09.579Z,5.3
2017-03-11T03:02:23.719Z,5.1
2017-03-11T03:12:37.698Z,5.2
2017-03-11T03:22:58.850Z,5.3
2017-03-11T03:33:07.366Z,5.2
2017-03-11T03:43:22.816Z,5.2
2017-03-11T03:53:36.594Z,5.2
2017-03-11T04:03:51.322Z,5.2
2017-03-11T04:14:05.459Z,5.2
2017-03-11T04:24:18.481Z,5.2
2017-03-11T04:34:58.188Z,5.1
2017-03-11T04:44:46.307Z,5.2
2017-03-11T04:55:00.934Z,5.2
2017-03-11T05:05:14.865Z,5.2
2017-03-11T05:15:28.465Z,5.1
2017-03-11T05:25:41.841Z,4.9
2017-03-11T05:35:55.574Z,4.7
2017-03-11T05:46:08.678Z,4.5
2017-03-11T05:56:23.604Z,4
2017-03-11T06:06:36.449Z,3.3
2017-03-11T06:16:51.463Z,2.8
2017-03-11T06:27:04.861Z,3.3
2017-03-11T06:37:17.973Z,3.2
2017-03-11T06:47:32.875Z,4.1
2017-03-11T06:57:45.970Z,4.5
2017-03-11T07:08:00.969Z,4.8
2017-03-11T07:18:14.867Z,5.6
2017-03-11T07:28:29.337Z,6.2
2017-03-11T07:38:43.899Z,6.5
2017-03-11T07:48:58.032Z,6.8
2017-03-11T07:59:13.001Z,7.5
2017-03-11T08:09:26.403Z,7.9
2017-03-11T08:19:39.621Z,9
2017-03-11T08:29:54.330Z,9.4
2017-03-11T08:40:09.316Z,9.9
2017-03-11T08:50:24.360Z,10.5
2017-03-11T09:00:38.640Z,10.9
2017-03-11T09:10:52.805Z,10.9
2017-03-11T09:21:07.684Z,11.2
2017-03-11T09:31:22.076Z,12.1
2017-03-11T09:41:35.870Z,11.4
2017-03-11T09:51:50.172Z,11.9
2017-03-11T10:02:07.456Z,11.6
2017-03-11T10:12:18.507Z,12
2017-03-11T10:22:33.343Z,12.8
2017-03-11T10:32:47.245Z,12.8
2017-03-11T10:43:01.484Z,12.9
2017-03-11T10:53:16.222Z,13.2
2017-03-11T11:03:33.826Z,13.4
2017-03-11T11:13:46.149Z,14.2
2017-03-11T11:24:00.867Z,13.8
2017-03-11T11:34:13.659Z,13.5
2017-03-11T11:44:28.248Z,14.2
2017-03-11T11:54:43.242Z,15.5
2017-03-11T12:04:57.914Z,14.1
2017-03-11T12:15:13.104Z,13.9
2017-03-11T12:25:27.895Z,14.1
2017-03-11T12:35:41.548Z,14.1
2017-03-11T12:45:54.940Z,13.8
2017-03-11T12:56:09.900Z,14.4
2017-03-11T13:06:23.510Z,14.4
2017-03-11T13:16:38.573Z,15.1
2017-03-11T13:26:53.606Z,14.3
2017-03-11T13:37:08.203Z,14.6
2017-03-11T13:47:22.342Z,14.6
2017-03-11T13:57:36.471Z,14.8
2017-03-11T14:07:50.820Z,14.2
2017-03-11T14:18:05.757Z,13.9
2017-03-11T14:28:19.961Z,14.1
2017-03-11T14:38:34.140Z,13.9
2017-03-11T14:48:49.233Z,14.3
2017-03-11T14:59:03.218Z,14.3
2017-03-11T15:09:17.817Z,14
2017-03-11T15:19:31.927Z,13.8
2017-03-11T15:29:45.939Z,13.7
2017-03-11T15:39:59.818Z,13.7
2017-03-11T15:50:13.106Z,13.4
2017-03-11T16:10:40.242Z,13
2017-03-11T16:20:54.141Z,12.8
2017-03-11T16:31:09.265Z,12.7
2017-03-11T16:41:23.453Z,12.2
2017-03-11T16:51:37.522Z,12.5
2017-03-11T17:01:51.789Z,12.1
2017-03-11T17:12:06.476Z,11.8
2017-03-11T17:22:20.759Z,11.7
2017-03-11T17:32:35.310Z,11.4
2017-03-11T17:42:48.874Z,11.3
2017-03-11T17:53:03.282Z,11
2017-03-11T18:03:17.608Z,10.7
2017-03-11T18:13:32.786Z,10.7
2017-03-11T18:23:47.170Z,10.2
2017-03-11T18:34:00.500Z,10
2017-03-11T18:44:13.620Z,9.8
2017-03-11T18:54:27.813Z,9.6
2017-03-11T19:04:42.242Z,9.4
2017-03-11T19:14:56.327Z,9.4
2017-03-11T19:25:09.868Z,9.3
2017-03-11T19:35:24.731Z,9.4
2017-03-11T19:45:38.743Z,9.3
2017-03-11T19:55:52.313Z,9
2017-03-11T20:06:07.075Z,8.9
2017-03-11T20:16:20.324Z,8.8
2017-03-11T20:26:35.379Z,8.8
2017-03-11T20:36:49.047Z,8.6
2017-03-11T20:47:03.185Z,8.4
2017-03-11T20:57:16.966Z,8.2
2017-03-11T21:07:31.628Z,8
2017-03-11T21:17:45.342Z,7.9
2017-03-11T21:27:59.417Z,7.6
2017-03-11T21:38:12.763Z,7.6
2017-03-11T21:48:26.012Z,7.6
2017-03-11T21:58:40.062Z,7.5
2017-03-11T22:08:53.154Z,7.1
2017-03-11T22:19:07.611Z,7.1
2017-03-11T22:29:21.552Z,7.1
2017-03-11T22:39:34.822Z,7.2
2017-03-11T22:49:50.651Z,7.1
2017-03-11T23:00:02.577Z,7.1
2017-03-11T23:10:16.171Z,7
2017-03-11T23:20:30.141Z,6.9
2017-03-11T23:30:43.491Z,6.8
2017-03-11T23:40:56.584Z,6.6
2017-03-11T23:51:11.552Z,6.6
